Record high temperature 30.9°C Record low temperature -23.5°C Record high gust 79.6 km/h Record high average 153.6 km/h Record daily rain 37.0 mm Record low windchill -31.0°C Record high barometer 1038.4 hPa Record low barometer 980.3 hPa
Daily high pressure 1014.9 hPa Daily low pressure 1011.1 hPa Daily low windchill 14.3°C Daily high heat index 29.9°C Daily high gust speed 18.5 kmh OSO Daily high average speed 5.4 kmh OSO
Wetterdaten
LETZTE AKTUALISIERUNG UM: 14:15 DATUM: Juli 20 2018, time of next update: 14:30
Aktuelles WetterClear Aktuelle Temperatur 30.7°C (87.2°F) (Hitze-Index 29.8°C ), Apparent temp 31.8°C , Apparent temp solar 40.7°C
Höchsttemperatur (seit Mitternacht)30.8°C um: 14:02 Tiefsttemperatur (seit Mitternacht)14.3°C um: 05:34
Windgeschwindigkeit (10 Minuten )3.5 kmh (1.9 kts) Windrichtung (Dir) (10 Minuten )SSW (204°)
Hitze-Index 29.8°C Windspitzen (letzte Std)10.1 kmh (5.5 kts) um: 13:41
Windspitzen (seit Mitternacht)18.5 kmh (10.0 kts) um: 11:34 Höchstes Windmittel / Minute (seit Mitternacht)5.4 kmh (2.9 kts) um: 09:38
Regenmenge (letzte Std)0.0 mm Regenmenge (seit Mitternacht)0.0 mm (0.00 in.)---
Regenmenge diesen Monat 20.4 mm (0.80 in.) Regenmenge seit Jahresbeginn 261.2 mm (10.28 in.)
Höchste Regenmenge pro Minute (letzte Std)0.0 mm/min Höchste Regenmenge pro Stunde (letzte 6 Std)0.0 mm/stunde
Regenmenge Gestern 0.0 mm Taupunkt 13.0°C (Wet Bulb :20.1°C )
Luftfeuchtigkeit 34 %, Humidex 33.5°C Aktueller Luftdruck (auf Meereshöhe bezogen)1011.1 hPa
Luftdrucktendenz -0.7 hPa (letzte Std) Trend (letzte 1 Std)gleichbleibend
Luftdrucktendenz (letzte 12 Std)-3.7 hPa Luftdrucktendenz (letzte 6 Std)-2.7 hPa
Maximum Soil temperature (seit Mitternacht) 23.3°C Minimum Soil temperature(seit Mitternacht)21.1°C
Current Soil temperature 23°C
Current Solar 919 W/m²
Maximum solar (seit Mitternacht) 954 W/m² Minimum solar(seit Mitternacht)0 W/m²
Current 05:38 hours of sunshine today, current sky: bewölkt
Sunshine hours for the year: 830:23 hrs Sunshine hours for the month: 119:57 hrs
Current evapotranspiration rate 5.5 mm per day. Yesterday's reading 5.9

Diese Seite wurde mit aktuellen Daten einer DAVIS VP Wetterstation erstellt. Drücken Sie bitte auf "Aktualisieren" oder "neu laden" um die neuesten Daten zu erhalten.


Animated web cam image


Weather report/warning/Metars

Stuttgart-Echterdingen, Germany (EDDS) 48-41N 009-13E 391M
Jul 20, 2018 - 07:50 AM EDT / 2018.07.20 1150 UTC
Wind: from the ENE (070 degrees) at 6 MPH (5 KT) (direction variable):0
Visibility: greater than 7 mile(s):0
Temperature: 84 F (29 C)
Dew Point: 50 F (10 C)
Relative Humidity: 30%
Pressure (altimeter): 29.91 in. Hg (1013 hPa)
ob: EDDS 201150Z 07005KT 020V150 CAVOK 29/10 Q1013 NOSIG
cycle: 12
Augsburg, Germany (EDMA) 48-26N 010-56E 463M
Jul 20, 2018 - 07:50 AM EDT / 2018.07.20 1150 UTC
Wind: Variable at 6 MPH (5 KT):0
Visibility: greater than 7 mile(s):0
Temperature: 82 F (28 C)
Dew Point: 53 F (12 C)
Relative Humidity: 37%
Pressure (altimeter): 29.94 in. Hg (1014 hPa)
ob: EDMA 201150Z VRB05KT CAVOK 28/12 Q1014
cycle: 12
Nuernberg, Germany (EDDN) 49-30N 011-03E 318M
Jul 20, 2018 - 07:50 AM EDT / 2018.07.20 1150 UTC
Wind: Variable at 5 MPH (4 KT):0
Visibility: greater than 7 mile(s):0
Temperature: 84 F (29 C)
Dew Point: 48 F (9 C)
Relative Humidity: 28%
Pressure (altimeter): 29.94 in. Hg (1014 hPa)
ob: EDDN 201150Z VRB04KT CAVOK 29/09 Q1014 NOSIG
cycle: 12
Berlin-Tegel, Germany (EDDT) 52-34N 013-19E 37M
Jul 20, 2018 - 07:50 AM EDT / 2018.07.20 1150 UTC
Wind: from the NW (310 degrees) at 8 MPH (7 KT) (direction variable):0
Visibility: greater than 7 mile(s):0
Temperature: 78 F (26 C)
Dew Point: 48 F (9 C)
Relative Humidity: 34%
Pressure (altimeter): 29.94 in. Hg (1014 hPa)
ob: EDDT 201150Z 31007KT 240V010 CAVOK 26/09 Q1014 NOSIG
cycle: 12
Friedrichshafen, Germany (EDNY) 47-40N 009-31E 424M
Jul 20, 2018 - 07:50 AM EDT / 2018.07.20 1150 UTC
Wind: from the SSW (210 degrees) at 8 MPH (7 KT):0
Visibility: greater than 7 mile(s):0
Temperature: 84 F (29 C)
Dew Point: 55 F (13 C)
Relative Humidity: 37%
Pressure (altimeter): 29.91 in. Hg (1013 hPa)
ob: EDNY 201150Z 21007KT CAVOK 29/13 Q1013
cycle: 12
Hamburg-Finkenwerder, Germany (EDHI) 53-32N 009-50E 13M
Jul 20, 2018 - 07:50 AM EDT / 2018.07.20 1150 UTC
Wind: Variable at 6 MPH (5 KT):0
Visibility: greater than 7 mile(s):0
Temperature: 77 F (25 C)
Dew Point: 44 F (7 C)
Relative Humidity: 31%
Pressure (altimeter): 29.97 in. Hg (1015 hPa)
ob: EDHI 201150Z VRB05KT CAVOK 25/07 Q1015
cycle: 12



Die Wetterdaten werden alle 2 Minuten gespeichert, aber die Datenübertragung findet jede Minute statt. Die beste Ansicht wird in einer Auflösung von 800 x 600 und "True colour" erzielt. Linie zeigt die relative Luftfeuchtigkeit an.

Drücken Sie bitte auf "Aktualisieren" in Ihrem Browser, um die aktuellsten Daten zu erhalten.

Klicken Sie hier, um eine Übersicht der Durchschnitts- u. Extremwerte für den Monat zu erhalten
Created by "Weather Display" software version 10.37S at this start time/date 11:28:11 15.07.2018